Litang, China
Current Conditions -  °F | °C
As of 8:00 AM on Tuesday 21 Oct 2014 (Local Time) from ZUUU Reporting Station
Haze Haze  
Wind Chill: 64°   Ceiling: Unl
Heat Index: 64°   Visibility: 1.2mi
Dew Point: 61°   Wind: 2mph
Humidity: 88%   Direction: NA
Pressure: 30.18"   Gusts: NA
Location:  30°N, 100.27°E
Report Text: ZUUU 210000Z VRB01MPS 2000 R02L/1900U R02R/1400U BRSCT05018/16 Q1022 NOSIG
Loading
Personal Weather Stations






























Interactive Weather Map
Tropical Storm Tracking
New forecast layout! Learn more

10-Day Weather Forecast

Advertisements
Track Severe Weather on mobile